Time;durP1;ratioP1;P1;durP2;ratioP2;P2;SDS_P1;SDS_P2;PMS_P1;PMS_P2;Temp;Humidity;BMP_temperature;BMP_pressure;BME280_temperature;BME280_humidity;BME280_pressure;Samples;Min_cycle;Max_cycle;Signal;HPM_P1;HPM_P2
2022/05/04 00:13:25;;;;;;;6.10;2.80;;;;;;;11.08;65.47;100689.42;709017;1180;114721;-73
2022/05/04 00:28:29;;;;;;;5.90;2.55;;;;;;;10.78;65.19;100691.00;708914;1180;115220;-74
2022/05/04 00:43:32;;;;;;;4.80;2.05;;;;;;;10.94;62.86;100714.19;709009;1180;114382;-74
2022/05/04 00:58:56;;;;;;;2.50;1.30;;;;;;;10.68;59.44;100732.92;708987;1182;115070;-76
2022/05/04 01:14:09;;;;;;;5.35;1.20;;;;;;;10.78;57.52;100757.47;709238;1184;115259;-74
2022/05/04 01:29:14;;;;;;;4.37;2.30;;;;;;;10.59;57.22;100759.91;708931;1181;114945;-74
2022/05/04 01:44:17;;;;;;;4.00;1.40;;;;;;;10.30;56.94;100761.23;709253;1182;115570;-74
2022/05/04 01:59:21;;;;;;;2.68;1.13;;;;;;;9.91;55.18;100746.86;708953;1182;115945;-74
2022/05/04 02:14:25;;;;;;;2.40;1.17;;;;;;;9.89;55.34;100773.19;709195;1181;115466;-75
2022/05/04 02:29:29;;;;;;;2.55;0.90;;;;;;;9.62;54.70;100792.70;709138;1183;114696;-74
2022/05/04 02:44:32;;;;;;;2.70;1.30;;;;;;;9.35;55.31;100792.99;709947;1180;114826;-75
2022/05/04 02:59:36;;;;;;;6.40;2.27;;;;;;;9.06;55.68;100784.70;709710;1181;114990;-75
2022/05/04 03:14:39;;;;;;;5.65;1.30;;;;;;;8.40;55.19;100801.55;709651;1184;114921;-78
2022/05/04 03:29:43;;;;;;;3.50;1.60;;;;;;;8.42;56.01;100807.52;709813;1184;115597;-77
2022/05/04 03:44:47;;;;;;;4.30;1.70;;;;;;;8.66;55.80;100828.49;710258;1181;114834;-77
2022/05/04 03:59:50;;;;;;;5.10;2.10;;;;;;;8.72;56.64;100834.23;709998;1180;115329;-78
2022/05/04 04:14:55;;;;;;;3.10;2.05;;;;;;;8.97;57.29;100838.53;709266;1184;115368;-78
2022/05/04 04:29:59;;;;;;;2.47;1.67;;;;;;;8.97;57.57;100846.38;709516;1180;114550;-80
2022/05/04 04:45:02;;;;;;;4.10;1.70;;;;;;;8.99;57.29;100857.59;709772;1182;115280;-79
2022/05/04 05:00:08;;;;;;;13.80;5.50;;;;;;;9.04;57.24;100876.41;709509;1180;115583;-78
2022/05/04 05:30:42;;;;;;;26.70;10.05;;;;;;;9.77;57.71;100895.50;709974;1182;115533;-80
2022/05/04 05:45:46;;;;;;;15.40;7.40;;;;;;;10.32;56.89;100894.88;709463;1183;115797;-77
2022/05/04 06:00:51;;;;;;;9.80;5.20;;;;;;;10.93;55.71;100910.23;709279;1184;115863;-78
2022/05/04 06:15:54;;;;;;;8.65;3.85;;;;;;;11.27;55.61;100912.79;709931;1180;114158;-77
2022/05/04 06:46:20;;;;;;;9.00;3.40;;;;;;;12.49;53.60;100914.98;709904;1180;115118;-76
2022/05/04 07:01:24;;;;;;;3.20;1.50;;;;;;;13.37;53.27;100936.30;709460;1182;115252;-76
2022/05/04 07:16:28;;;;;;;10.80;2.90;;;;;;;14.05;51.84;100927.50;708991;1182;114797;-76
2022/05/04 07:31:42;;;;;;;7.67;2.40;;;;;;;15.22;51.33;100930.63;709474;1181;115087;-74
2022/05/04 07:46:46;;;;;;;5.40;1.95;;;;;;;16.72;49.82;100935.00;709631;1182;114858;-75
2022/05/04 08:17:13;;;;;;;13.70;5.50;;;;;;;17.53;45.87;100955.77;710003;1180;115318;-74
2022/05/04 08:32:16;;;;;;;9.17;1.97;;;;;;;18.19;44.08;100955.77;710267;1180;115372;-74
2022/05/04 08:47:22;;;;;;;2.35;1.00;;;;;;;19.24;43.46;100938.72;710277;1180;114267;-74
2022/05/04 09:02:26;;;;;;;5.65;3.10;;;;;;;19.78;41.66;100951.11;709993;1183;114263;-75
2022/05/04 09:17:30;;;;;;;2.90;1.00;;;;;;;20.00;39.80;100940.64;711083;1183;115960;-73
2022/05/04 09:32:41;;;;;;;4.45;1.85;;;;;;;20.77;38.10;100932.30;709234;1182;115107;-76
2022/05/04 09:47:48;;;;;;;2.50;0.50;;;;;;;21.19;37.09;100929.05;709536;1180;114686;-76
2022/05/04 10:02:53;;;;;;;2.80;1.30;;;;;;;21.87;37.62;100924.13;710696;1182;114495;-77
2022/05/04 10:18:10;;;;;;;3.17;0.70;;;;;;;21.47;37.63;100912.27;710686;1180;115669;-78
2022/05/04 10:33:18;;;;;;;2.60;1.00;;;;;;;21.60;36.96;100907.07;709742;1182;115412;-77
2022/05/04 10:48:24;;;;;;;9.70;4.25;;;;;;;22.55;36.65;100894.09;710419;1184;115714;-76
2022/05/04 11:03:34;;;;;;;1.90;0.80;;;;;;;23.33;35.59;100889.38;710341;1184;114432;-77
2022/05/04 11:18:39;;;;;;;2.00;0.90;;;;;;;24.11;35.59;100883.33;712670;1182;114435;-76
2022/05/04 11:33:47;;;;;;;1.40;0.70;;;;;;;22.93;34.82;100885.58;709791;1182;115346;-76
2022/05/04 11:48:55;;;;;;;;;;;;;;;24.09;33.95;100866.66;709513;1184;115262;-77
2022/05/04 12:04:06;;;;;;;3.23;0.90;;;;;;;23.17;33.80;100869.19;709364;1184;101875;-77
2022/05/04 12:19:11;;;;;;;1.50;0.70;;;;;;;23.94;35.23;100853.52;710098;1184;115981;-75
2022/05/04 12:34:15;;;;;;;1.55;0.70;;;;;;;23.29;34.25;100840.78;709541;1181;115594;-76
2022/05/04 12:49:22;;;;;;;2.25;0.80;;;;;;;23.62;34.61;100828.41;709251;1181;116037;-77
2022/05/04 13:04:26;;;;;;;4.60;1.00;;;;;;;23.39;34.58;100818.97;709858;1183;115212;-79
2022/05/04 13:19:31;;;;;;;4.80;1.80;;;;;;;23.91;33.78;100819.09;711299;1182;115210;-78
2022/05/04 13:34:35;;;;;;;5.10;2.10;;;;;;;24.14;34.02;100809.73;710196;1182;115411;-78
2022/05/04 13:49:40;;;;;;;1.00;0.80;;;;;;;24.26;33.78;100808.86;710647;1184;114884;-76
2022/05/04 14:04:43;;;;;;;7.63;3.90;;;;;;;24.94;34.49;100795.08;712237;1181;115247;-78
2022/05/04 14:19:48;;;;;;;3.10;1.70;;;;;;;30.92;31.98;100782.99;711017;1183;114647;-77
2022/05/04 14:34:52;;;;;;;2.40;1.20;;;;;;;36.31;29.14;100767.70;710633;1182;116034;-78
2022/05/04 14:49:56;;;;;;;1.85;1.10;;;;;;;27.14;30.00;100755.81;710178;1182;114941;-79
2022/05/04 15:05:05;;;;;;;2.35;1.20;;;;;;;25.16;32.67;100747.21;710663;1182;116011;-75
2022/05/04 15:20:09;;;;;;;2.45;1.05;;;;;;;23.87;32.92;100737.48;710730;1184;114669;-76
2022/05/04 15:35:13;;;;;;;4.70;1.40;;;;;;;22.66;33.99;100720.77;710573;1181;115319;-82
2022/05/04 15:50:17;;;;;;;3.80;1.87;;;;;;;22.32;34.68;100709.20;711029;1184;115281;-79
2022/05/04 16:05:22;;;;;;;5.23;2.33;;;;;;;21.85;34.68;100707.19;714758;1180;115608;-79
2022/05/04 16:35:55;;;;;;;10.20;4.70;;;;;;;20.51;35.91;100710.74;710293;1181;114634;-79
2022/05/04 16:50:59;;;;;;;4.65;2.85;;;;;;;20.10;36.44;100705.02;709797;1180;115960;-84
2022/05/04 17:06:03;;;;;;;22.65;10.55;;;;;;;19.83;36.40;100701.22;710064;1180;115335;-84
2022/05/04 17:21:07;;;;;;;6.50;2.20;;;;;;;19.86;36.39;100708.00;709670;1180;116015;-83
2022/05/04 17:51:35;;;;;;;35.60;17.60;;;;;;;18.77;37.13;100709.26;712334;1182;115311;-80
2022/05/04 18:06:40;;;;;;;6.67;3.40;;;;;;;18.06;37.80;100722.67;710193;1180;115508;-81
2022/05/04 18:21:45;;;;;;;33.77;14.90;;;;;;;17.36;38.59;100727.69;710515;1180;115275;-79
2022/05/04 18:36:50;;;;;;;29.50;12.20;;;;;;;16.78;38.70;100737.48;710605;1182;115581;-85
2022/05/04 18:51:53;;;;;;;14.68;8.93;;;;;;;16.22;39.59;100755.73;711107;1183;116237;-86
2022/05/04 19:07:17;;;;;;;30.30;13.20;;;;;;;15.63;40.14;100767.04;710655;1184;114749;-85
2022/05/04 19:22:22;;;;;;;11.07;4.73;;;;;;;15.23;40.52;100766.63;710367;1182;115652;-86
2022/05/04 19:37:26;;;;;;;10.00;5.00;;;;;;;14.81;40.66;100772.55;710489;1183;115198;-80
2022/05/04 19:52:29;;;;;;;9.90;4.65;;;;;;;14.48;40.55;100775.66;710933;1182;116019;-80
2022/05/04 20:07:34;;;;;;;20.10;5.00;;;;;;;14.01;40.32;100786.32;710259;1184;115117;-79
2022/05/04 20:22:38;;;;;;;10.65;4.95;;;;;;;13.70;40.29;100794.49;710283;1181;116068;-79
2022/05/04 20:53:04;;;;;;;7.25;4.00;;;;;;;13.05;40.25;100821.45;709762;1181;115790;-79
2022/05/04 21:08:08;;;;;;;6.93;4.73;;;;;;;12.76;40.34;100838.05;710479;1184;115888;-78
2022/05/04 21:23:12;;;;;;;6.50;3.85;;;;;;;12.49;40.37;100842.13;709620;1181;114950;-78
2022/05/04 21:38:17;;;;;;;10.93;4.77;;;;;;;12.27;40.17;100837.07;709732;1181;115906;-79
2022/05/04 21:53:21;;;;;;;6.45;4.30;;;;;;;12.00;40.05;100841.13;709369;1181;114964;-78
2022/05/04 22:08:24;;;;;;;10.35;8.85;;;;;;;11.89;40.57;100839.38;709229;1182;115447;-78
2022/05/04 22:23:28;;;;;;;7.87;3.30;;;;;;;11.71;41.03;100848.82;709448;1180;115140;-79
2022/05/04 22:38:33;;;;;;;3.47;2.30;;;;;;;11.61;41.63;100851.37;709631;1184;115688;-80
2022/05/04 22:53:36;;;;;;;7.75;2.30;;;;;;;11.40;41.40;100849.58;709380;1184;115108;-77
2022/05/04 23:08:40;;;;;;;7.53;2.57;;;;;;;11.54;41.49;100844.97;709391;1182;115580;-78
2022/05/04 23:23:44;;;;;;;;;;;;;;;10.44;42.88;100851.98;709311;1181;115823;-78
2022/05/04 23:38:47;;;;;;;7.10;3.20;;;;;;;10.16;44.17;100848.01;709251;1183;101536;-78
2022/05/04 23:53:51;;;;;;;4.97;1.83;;;;;;;10.10;43.36;100846.70;709395;1181;115629;-81
